createdAt,value
2018-12-26T00:00:01.039Z,6.70
2018-12-26T00:02:41.492Z,8.93
2018-12-26T00:05:21.993Z,7.20
2018-12-26T00:08:02.225Z,7.10
2018-12-26T00:10:42.838Z,8.70
2018-12-26T00:13:23.477Z,8.33
2018-12-26T00:16:04.542Z,7.50
2018-12-26T00:18:45.529Z,8.33
2018-12-26T00:21:26.261Z,9.10
2018-12-26T00:24:06.979Z,8.43
2018-12-26T00:26:47.585Z,9.70
2018-12-26T00:29:28.137Z,8.27
2018-12-26T00:32:08.748Z,9.50
2018-12-26T00:34:49.369Z,10.03
2018-12-26T00:37:30.300Z,10.73
2018-12-26T00:40:11.142Z,9.47
2018-12-26T00:42:51.761Z,12.00
2018-12-26T00:45:32.219Z,11.00
2018-12-26T00:48:12.950Z,12.80
2018-12-26T00:50:53.900Z,12.43
2018-12-26T00:53:34.783Z,13.57
2018-12-26T00:56:15.500Z,14.00
2018-12-26T00:58:56.321Z,14.50
2018-12-26T01:01:37.159Z,14.03
2018-12-26T01:04:17.920Z,14.63
2018-12-26T01:06:58.732Z,15.07
2018-12-26T01:09:39.333Z,16.00
2018-12-26T01:12:20.276Z,15.73
2018-12-26T01:15:01.157Z,17.23
2018-12-26T01:17:41.749Z,16.63
2018-12-26T01:20:22.821Z,17.17
2018-12-26T01:23:03.569Z,18.77
2018-12-26T01:25:44.473Z,17.10
2018-12-26T01:28:25.488Z,17.90
2018-12-26T01:31:05.929Z,18.67
2018-12-26T01:33:46.534Z,17.87
2018-12-26T01:36:27.154Z,19.27
2018-12-26T01:39:07.692Z,18.83
2018-12-26T01:41:48.525Z,20.03
2018-12-26T01:44:29.207Z,20.23
2018-12-26T01:47:10.066Z,19.80
2018-12-26T01:49:50.742Z,21.20
2018-12-26T01:52:31.446Z,21.97
2018-12-26T01:55:12.157Z,21.23
2018-12-26T01:57:53.173Z,22.07
2018-12-26T02:00:33.946Z,21.10
2018-12-26T02:03:15.061Z,20.97
2018-12-26T02:05:55.593Z,20.77
2018-12-26T02:08:36.209Z,22.03
2018-12-26T02:11:16.649Z,22.70
2018-12-26T02:13:57.605Z,24.90
2018-12-26T02:16:38.309Z,22.30
2018-12-26T02:19:19.168Z,23.63
2018-12-26T02:21:59.953Z,23.03
2018-12-26T02:27:23.813Z,20.37
2018-12-26T02:30:04.135Z,22.80
2018-12-26T02:32:44.354Z,21.50
2018-12-26T02:35:25.297Z,22.83
2018-12-26T02:38:06.056Z,21.07
2018-12-26T02:40:46.857Z,19.43
2018-12-26T02:43:27.566Z,20.27
2018-12-26T02:46:08.111Z,18.00
2018-12-26T02:48:48.741Z,20.07
2018-12-26T02:51:29.502Z,21.43
2018-12-26T02:54:10.455Z,19.30
2018-12-26T02:56:51.258Z,19.43
2018-12-26T02:59:32.289Z,20.00
2018-12-26T03:04:55.001Z,21.93
2018-12-26T03:07:35.407Z,20.80
2018-12-26T03:10:16.050Z,19.67
2018-12-26T03:12:56.726Z,22.10
2018-12-26T03:15:37.406Z,20.13
2018-12-26T03:18:17.793Z,20.27
2018-12-26T03:20:58.234Z,19.43
2018-12-26T03:23:38.870Z,18.40
2018-12-26T03:26:19.897Z,20.73
2018-12-26T03:29:00.705Z,19.97
2018-12-26T03:34:22.959Z,20.63
2018-12-26T03:37:03.931Z,20.33
2018-12-26T03:39:44.693Z,22.30
2018-12-26T03:42:25.423Z,20.60
2018-12-26T03:45:06.305Z,20.40
2018-12-26T03:47:46.829Z,20.67
2018-12-26T03:50:27.960Z,22.27
2018-12-26T03:53:08.556Z,20.77
2018-12-26T03:55:49.120Z,21.30
2018-12-26T03:58:29.969Z,20.40
2018-12-26T04:01:10.674Z,22.07
2018-12-26T04:03:51.564Z,21.00
2018-12-26T04:06:32.026Z,21.90
2018-12-26T04:09:12.958Z,20.20
2018-12-26T04:11:53.602Z,19.17
2018-12-26T04:14:34.231Z,22.20
2018-12-26T04:17:14.689Z,20.40
2018-12-26T04:19:55.016Z,20.60
2018-12-26T04:22:35.949Z,20.30
2018-12-26T04:25:16.956Z,22.47
2018-12-26T04:27:57.426Z,22.27
2018-12-26T04:30:37.921Z,21.67
2018-12-26T04:33:18.429Z,22.70
2018-12-26T04:35:58.849Z,22.63
2018-12-26T04:38:39.638Z,22.03
2018-12-26T04:41:19.992Z,20.07
2018-12-26T04:44:00.569Z,22.80
2018-12-26T04:46:41.326Z,21.97
2018-12-26T04:49:23.813Z,22.63
2018-12-26T04:52:04.796Z,23.83
2018-12-26T04:54:45.630Z,21.93
2018-12-26T04:57:26.332Z,20.03
2018-12-26T05:00:06.766Z,21.70
2018-12-26T05:02:47.479Z,22.10
2018-12-26T05:05:28.248Z,23.00
2018-12-26T05:08:09.181Z,23.60
2018-12-26T05:10:49.846Z,22.07
2018-12-26T05:13:30.685Z,22.47
2018-12-26T05:16:11.388Z,23.27
2018-12-26T05:18:52.253Z,23.97
2018-12-26T05:21:32.954Z,23.33
2018-12-26T05:24:13.919Z,24.67
2018-12-26T05:26:54.602Z,23.87
2018-12-26T05:29:35.195Z,23.53
2018-12-26T05:32:15.825Z,23.40
2018-12-26T05:34:56.629Z,24.23
2018-12-26T05:37:37.360Z,28.77
2018-12-26T05:40:18.135Z,24.90
2018-12-26T05:42:59.102Z,28.07
2018-12-26T05:45:39.960Z,27.63
2018-12-26T05:48:20.789Z,28.10
2018-12-26T05:51:01.604Z,24.03
2018-12-26T05:53:42.145Z,27.30
2018-12-26T05:56:22.594Z,28.23
2018-12-26T05:59:03.637Z,30.87
2018-12-26T06:01:44.170Z,30.77
2018-12-26T06:04:24.997Z,34.00
2018-12-26T06:07:05.622Z,33.90
2018-12-26T06:09:46.487Z,29.67
2018-12-26T06:12:27.386Z,28.60
2018-12-26T06:15:08.291Z,33.20
2018-12-26T06:17:49.141Z,32.30
2018-12-26T06:20:29.448Z,32.00
2018-12-26T06:23:10.125Z,33.93
2018-12-26T06:25:51.001Z,29.30
2018-12-26T06:28:31.753Z,34.50
2018-12-26T06:31:12.587Z,33.70
2018-12-26T06:33:53.074Z,31.60
2018-12-26T06:36:33.724Z,33.57
2018-12-26T06:39:14.498Z,33.17
2018-12-26T06:41:54.962Z,32.30
2018-12-26T06:44:35.475Z,32.17
2018-12-26T06:47:16.406Z,31.07
2018-12-26T06:49:56.767Z,32.40
2018-12-26T06:52:37.514Z,31.47
2018-12-26T06:55:18.138Z,32.70
2018-12-26T06:58:00.259Z,34.00
2018-12-26T07:00:40.763Z,33.97
2018-12-26T07:03:21.062Z,31.47
2018-12-26T07:06:01.971Z,33.67
2018-12-26T07:08:42.773Z,31.00
2018-12-26T07:11:23.998Z,33.80
2018-12-26T07:14:04.536Z,34.17
2018-12-26T07:16:44.853Z,31.87
2018-12-26T07:19:25.425Z,33.73
2018-12-26T07:22:06.213Z,31.17
2018-12-26T07:24:47.292Z,30.47
2018-12-26T07:27:28.327Z,32.10
2018-12-26T07:30:09.146Z,31.30
2018-12-26T07:32:50.182Z,31.80
2018-12-26T07:35:31.133Z,31.07
2018-12-26T07:38:12.006Z,29.97
2018-12-26T07:40:52.789Z,28.70
2018-12-26T07:43:33.729Z,32.50
2018-12-26T07:46:14.458Z,31.20
2018-12-26T07:48:55.361Z,30.83
2018-12-26T07:51:36.138Z,29.77
2018-12-26T07:54:16.887Z,30.07
2018-12-26T07:59:56.559Z,30.13
2018-12-26T08:02:37.324Z,29.90
2018-12-26T08:05:18.240Z,35.50
2018-12-26T08:07:58.773Z,31.50
2018-12-26T08:10:39.188Z,32.00
2018-12-26T08:13:19.758Z,33.97
2018-12-26T08:16:00.727Z,33.07
2018-12-26T08:18:41.509Z,32.57
2018-12-26T08:21:22.245Z,30.97
2018-12-26T08:24:04.562Z,32.53
2018-12-26T08:26:45.657Z,31.70
2018-12-26T08:29:26.154Z,29.53
2018-12-26T08:32:06.863Z,28.27
2018-12-26T08:34:47.668Z,23.87
2018-12-26T08:37:28.330Z,24.30
2018-12-26T08:42:51.351Z,21.77
2018-12-26T08:45:32.385Z,24.10
2018-12-26T08:48:13.249Z,24.10
2018-12-26T08:50:54.257Z,24.53
2018-12-26T08:53:34.976Z,20.57
2018-12-26T08:56:15.419Z,24.93
2018-12-26T08:58:55.943Z,22.00
2018-12-26T09:01:36.841Z,21.47
2018-12-26T09:04:17.689Z,23.03
2018-12-26T09:06:58.240Z,22.60
2018-12-26T09:09:38.933Z,22.03
2018-12-26T09:12:19.584Z,21.43
2018-12-26T09:14:59.960Z,18.97
2018-12-26T09:17:40.933Z,20.30
2018-12-26T09:20:23.394Z,17.30
2018-12-26T09:23:03.677Z,18.53
2018-12-26T09:25:44.439Z,19.10
2018-12-26T09:28:24.860Z,20.93
2018-12-26T09:31:05.568Z,21.70
2018-12-26T09:33:45.969Z,18.20
2018-12-26T09:36:26.926Z,21.67
2018-12-26T09:39:08.128Z,19.30
2018-12-26T09:41:48.598Z,20.67
2018-12-26T09:44:29.453Z,18.43
2018-12-26T09:47:09.889Z,18.73
2018-12-26T09:49:50.333Z,17.40
2018-12-26T09:52:32.755Z,18.27
2018-12-26T09:55:13.077Z,16.97
2018-12-26T09:57:53.928Z,16.80
2018-12-26T10:00:34.837Z,16.43
2018-12-26T10:03:15.775Z,17.10
2018-12-26T10:05:56.821Z,14.93
2018-12-26T10:08:37.582Z,17.07
2018-12-26T10:11:18.368Z,16.47
2018-12-26T10:13:59.118Z,16.30
2018-12-26T10:16:39.773Z,16.70
2018-12-26T10:19:20.153Z,13.07
2018-12-26T10:22:00.856Z,14.00
2018-12-26T10:24:41.607Z,17.30
2018-12-26T10:27:22.189Z,15.60
2018-12-26T10:30:02.728Z,15.50
2018-12-26T10:32:43.453Z,15.93
2018-12-26T10:35:23.825Z,17.30
2018-12-26T10:38:04.407Z,14.70
2018-12-26T10:40:45.209Z,14.70
2018-12-26T10:43:26.084Z,14.83
2018-12-26T10:46:06.576Z,15.67
2018-12-26T10:48:47.177Z,14.10
2018-12-26T10:51:27.778Z,13.43
2018-12-26T10:54:08.265Z,11.90
2018-12-26T10:56:49.188Z,13.97
2018-12-26T10:59:29.933Z,14.97
2018-12-26T11:02:10.853Z,12.20
2018-12-26T11:07:49.800Z,10.23
2018-12-26T11:10:30.312Z,10.77
2018-12-26T11:13:11.311Z,11.07
2018-12-26T11:15:53.122Z,11.20
2018-12-26T11:18:33.633Z,10.80
2018-12-26T11:21:14.250Z,11.50
2018-12-26T11:23:55.200Z,11.63
2018-12-26T11:26:36.117Z,12.77
2018-12-26T11:29:18.656Z,11.43
2018-12-26T11:31:59.487Z,10.00
2018-12-26T11:34:40.189Z,10.73
2018-12-26T11:37:20.965Z,13.20
2018-12-26T11:40:01.625Z,11.10
2018-12-26T11:42:42.504Z,12.13
2018-12-26T11:45:23.341Z,12.60
2018-12-26T11:48:04.381Z,12.60
2018-12-26T11:50:45.160Z,12.07
2018-12-26T11:53:26.193Z,11.37
2018-12-26T11:56:07.004Z,11.23
2018-12-26T11:58:47.916Z,11.63
2018-12-26T12:01:28.785Z,11.90
2018-12-26T12:04:09.948Z,11.13
2018-12-26T12:06:51.029Z,10.50
2018-12-26T12:09:31.660Z,11.70
2018-12-26T12:12:12.614Z,12.07
2018-12-26T12:14:52.861Z,13.00
2018-12-26T12:17:33.545Z,13.10
2018-12-26T12:20:14.438Z,12.00
2018-12-26T12:25:54.530Z,12.67
2018-12-26T12:28:35.417Z,13.67
2018-12-26T12:31:16.329Z,12.70
2018-12-26T12:33:57.273Z,13.20
2018-12-26T12:36:38.148Z,14.63
2018-12-26T12:39:18.626Z,12.60
2018-12-26T12:41:59.178Z,12.03
2018-12-26T12:44:39.734Z,13.23
2018-12-26T12:47:20.653Z,12.43
2018-12-26T12:50:01.467Z,12.47
2018-12-26T12:52:42.365Z,13.20
2018-12-26T12:55:23.491Z,14.30
2018-12-26T12:58:04.222Z,13.17
2018-12-26T13:00:44.629Z,14.47
2018-12-26T13:03:25.601Z,13.63
2018-12-26T13:06:06.296Z,15.13
2018-12-26T13:08:46.850Z,17.10
2018-12-26T13:11:27.517Z,12.90
2018-12-26T13:14:08.417Z,14.77
2018-12-26T13:16:49.177Z,15.43
2018-12-26T13:19:29.801Z,13.83
2018-12-26T13:22:10.406Z,18.50
2018-12-26T13:24:50.781Z,15.70
2018-12-26T13:27:31.720Z,17.40
2018-12-26T13:30:12.405Z,20.40
2018-12-26T13:32:52.977Z,18.87
2018-12-26T13:35:33.407Z,17.17
2018-12-26T13:38:14.081Z,19.67
2018-12-26T13:40:54.766Z,17.90
2018-12-26T13:43:35.202Z,18.47
2018-12-26T13:46:15.845Z,22.37
2018-12-26T13:48:56.817Z,22.03
2018-12-26T13:51:37.520Z,20.30
2018-12-26T13:54:18.069Z,21.70
2018-12-26T13:56:59.009Z,24.03
2018-12-26T13:59:39.738Z,24.30
2018-12-26T14:02:20.421Z,25.47
2018-12-26T14:05:01.331Z,28.40
2018-12-26T14:07:41.610Z,25.50
2018-12-26T14:10:22.141Z,26.30
2018-12-26T14:13:02.784Z,28.57
2018-12-26T14:15:43.481Z,29.60
2018-12-26T14:18:24.269Z,26.10
2018-12-26T14:21:05.149Z,29.50
2018-12-26T14:23:45.685Z,29.63
2018-12-26T14:26:26.409Z,25.83
2018-12-26T14:29:06.838Z,28.10
2018-12-26T14:31:47.514Z,28.57
2018-12-26T14:34:28.387Z,31.13
2018-12-26T14:37:09.066Z,35.27
2018-12-26T14:39:50.088Z,27.20
2018-12-26T14:42:30.940Z,29.77
2018-12-26T14:48:09.993Z,30.00
2018-12-26T14:50:50.598Z,30.80
2018-12-26T14:53:31.529Z,29.80
2018-12-26T14:56:11.961Z,30.40
2018-12-26T14:58:52.521Z,29.37
2018-12-26T15:01:32.943Z,28.57
2018-12-26T15:04:13.866Z,28.53
2018-12-26T15:06:54.402Z,28.83
2018-12-26T15:09:35.017Z,27.30
2018-12-26T15:12:15.517Z,26.70
2018-12-26T15:14:56.023Z,27.37
2018-12-26T15:17:36.555Z,26.80
2018-12-26T15:20:17.288Z,26.33
2018-12-26T15:22:58.001Z,26.60
2018-12-26T15:25:38.881Z,24.00
2018-12-26T15:28:19.964Z,25.90
2018-12-26T15:31:00.844Z,24.40
2018-12-26T15:33:41.707Z,24.73
2018-12-26T15:36:22.482Z,23.83
2018-12-26T15:39:03.738Z,25.43
2018-12-26T15:41:44.545Z,23.60
2018-12-26T15:44:25.339Z,24.37
2018-12-26T15:47:06.258Z,19.10
2018-12-26T15:49:47.162Z,24.47
2018-12-26T15:52:28.132Z,23.50
2018-12-26T15:55:08.723Z,26.70
2018-12-26T15:57:49.497Z,25.80
2018-12-26T16:00:37.367Z,24.37
2018-12-26T16:03:12.463Z,28.00
2018-12-26T16:05:53.376Z,27.80
2018-12-26T16:08:34.010Z,26.40
2018-12-26T16:11:14.394Z,25.17
2018-12-26T16:13:54.844Z,26.47
2018-12-26T16:16:35.309Z,28.90
2018-12-26T16:19:16.065Z,29.07
2018-12-26T16:21:56.945Z,27.10
2018-12-26T16:24:37.482Z,27.07
2018-12-26T16:27:18.238Z,30.37
2018-12-26T16:29:59.356Z,25.63
2018-12-26T16:32:40.189Z,27.60
2018-12-26T16:35:20.638Z,26.57
2018-12-26T16:38:01.759Z,25.03
2018-12-26T16:43:55.072Z,24.93
2018-12-26T16:46:35.808Z,27.33
2018-12-26T16:49:16.647Z,25.20
2018-12-26T16:51:57.173Z,28.23
2018-12-26T16:54:37.516Z,28.80
2018-12-26T16:57:18.376Z,29.77
2018-12-26T16:59:59.064Z,29.00
2018-12-26T17:02:40.172Z,29.73
2018-12-26T17:05:20.493Z,33.40
2018-12-26T17:08:00.953Z,30.50
2018-12-26T17:10:41.693Z,29.53
2018-12-26T17:13:22.240Z,28.97
2018-12-26T17:16:02.721Z,30.80
2018-12-26T17:18:43.331Z,32.03
2018-12-26T17:21:23.657Z,33.77
2018-12-26T17:24:05.428Z,30.70
2018-12-26T17:26:46.112Z,33.90
2018-12-26T17:29:26.894Z,35.13
2018-12-26T17:32:07.673Z,30.30
2018-12-26T17:34:48.744Z,30.30
2018-12-26T17:37:29.576Z,26.77
2018-12-26T17:40:10.376Z,29.90
2018-12-26T17:42:51.431Z,36.90
2018-12-26T17:45:32.384Z,31.43
2018-12-26T17:48:12.667Z,28.30
2018-12-26T17:50:52.885Z,27.70
2018-12-26T17:53:33.952Z,29.90
2018-12-26T17:56:14.790Z,30.67
2018-12-26T17:58:55.487Z,28.07
2018-12-26T18:01:35.688Z,30.03
2018-12-26T18:04:16.366Z,30.90
2018-12-26T18:06:56.942Z,29.40
2018-12-26T18:09:37.746Z,25.33
2018-12-26T18:12:18.162Z,29.40
2018-12-26T18:14:58.990Z,27.87
2018-12-26T18:17:39.875Z,25.67
2018-12-26T18:20:20.054Z,27.80
2018-12-26T18:23:01.167Z,29.10
2018-12-26T18:28:54.227Z,24.80
2018-12-26T18:31:36.816Z,21.77
2018-12-26T18:34:18.025Z,22.30
2018-12-26T18:36:58.567Z,22.50
2018-12-26T18:39:39.515Z,24.40
2018-12-26T18:42:20.463Z,23.70
2018-12-26T18:47:43.154Z,24.77
2018-12-26T18:50:24.128Z,26.00
2018-12-26T18:53:05.013Z,25.50
2018-12-26T18:55:45.715Z,25.17
2018-12-26T18:58:25.863Z,21.10
2018-12-26T19:01:06.650Z,19.63
2018-12-26T19:03:47.818Z,23.67
2018-12-26T19:06:28.727Z,22.80
2018-12-26T19:09:09.131Z,19.83
2018-12-26T19:11:50.157Z,22.40
2018-12-26T19:14:30.349Z,24.60
2018-12-26T19:17:11.325Z,16.50
2018-12-26T19:19:51.981Z,23.03
2018-12-26T19:22:32.493Z,23.60
2018-12-26T19:25:13.198Z,21.67
2018-12-26T19:27:54.357Z,21.20
2018-12-26T19:30:35.093Z,21.23
2018-12-26T19:33:15.809Z,22.37
2018-12-26T19:35:56.654Z,20.80
2018-12-26T19:38:37.304Z,20.20
2018-12-26T19:41:18.194Z,22.50
2018-12-26T19:43:58.989Z,21.30
2018-12-26T19:46:39.905Z,21.23
2018-12-26T19:49:20.327Z,22.60
2018-12-26T19:52:01.126Z,21.57
2018-12-26T19:54:41.806Z,23.00
2018-12-26T19:57:22.605Z,22.93
2018-12-26T20:00:03.113Z,22.77
2018-12-26T20:02:43.564Z,21.03
2018-12-26T20:05:24.317Z,17.97
2018-12-26T20:08:04.817Z,22.07
2018-12-26T20:10:45.313Z,22.80
2018-12-26T20:13:26.001Z,21.13
2018-12-26T20:16:06.893Z,21.83
2018-12-26T20:18:47.777Z,18.83
2018-12-26T20:21:28.259Z,19.67
2018-12-26T20:27:07.861Z,20.00
2018-12-26T20:29:48.561Z,19.60
2018-12-26T20:32:28.740Z,20.00
2018-12-26T20:35:09.485Z,18.30
2018-12-26T20:37:50.282Z,20.37
2018-12-26T20:40:30.800Z,20.50
2018-12-26T20:43:11.516Z,21.30
2018-12-26T20:45:52.017Z,20.53
2018-12-26T20:48:32.821Z,21.90
2018-12-26T20:51:13.478Z,20.00
2018-12-26T20:53:53.609Z,19.80
2018-12-26T20:56:34.194Z,20.90
2018-12-26T20:59:14.733Z,23.23
2018-12-26T21:01:55.347Z,19.90
2018-12-26T21:04:36.121Z,26.20
2018-12-26T21:10:29.305Z,23.60
2018-12-26T21:13:09.660Z,22.13
2018-12-26T21:15:50.589Z,23.97
2018-12-26T21:18:31.229Z,19.97
2018-12-26T21:21:11.768Z,23.17
2018-12-26T21:23:52.561Z,23.00
2018-12-26T21:26:32.961Z,20.93
2018-12-26T21:29:14.974Z,21.80
2018-12-26T21:31:55.480Z,27.03
2018-12-26T21:34:36.397Z,19.90
2018-12-26T21:37:17.289Z,20.97
2018-12-26T21:39:58.276Z,23.30
2018-12-26T21:42:39.047Z,21.70
2018-12-26T21:45:19.886Z,22.17
2018-12-26T21:48:00.797Z,22.70
2018-12-26T21:50:41.682Z,22.63
2018-12-26T21:53:22.145Z,23.17
2018-12-26T21:56:03.025Z,21.93
2018-12-26T21:58:43.676Z,23.70
2018-12-26T22:01:24.622Z,22.20
2018-12-26T22:06:47.737Z,23.90
2018-12-26T22:09:28.061Z,23.17
2018-12-26T22:12:09.161Z,24.10
2018-12-26T22:14:50.002Z,24.13
2018-12-26T22:17:30.500Z,30.23
2018-12-26T22:20:12.089Z,21.20
2018-12-26T22:22:53.008Z,20.20
2018-12-26T22:25:33.736Z,23.97
2018-12-26T22:28:14.165Z,22.67
2018-12-26T22:30:54.996Z,19.60
2018-12-26T22:33:35.556Z,23.17
2018-12-26T22:36:16.329Z,25.10
2018-12-26T22:38:56.874Z,24.73
2018-12-26T22:41:37.568Z,22.77
2018-12-26T22:44:18.211Z,26.57
2018-12-26T22:46:59.113Z,22.03
2018-12-26T22:49:39.873Z,25.17
2018-12-26T22:52:20.617Z,22.80
2018-12-26T22:55:01.510Z,24.40
2018-12-26T22:57:42.057Z,26.70
2018-12-26T23:00:24.191Z,25.90
2018-12-26T23:03:05.053Z,25.17
2018-12-26T23:08:58.180Z,21.57
2018-12-26T23:11:38.784Z,26.50
2018-12-26T23:14:19.717Z,23.40
2018-12-26T23:17:00.356Z,26.23
2018-12-26T23:19:41.174Z,27.77
2018-12-26T23:22:22.157Z,26.03
2018-12-26T23:25:02.797Z,25.60
2018-12-26T23:27:43.855Z,27.57
2018-12-26T23:30:24.682Z,26.87
2018-12-26T23:33:05.401Z,28.60
2018-12-26T23:35:46.215Z,26.50
2018-12-26T23:38:27.009Z,30.30
2018-12-26T23:41:07.894Z,32.50
2018-12-26T23:43:48.305Z,30.40
2018-12-26T23:46:28.876Z,29.70
2018-12-26T23:49:09.418Z,31.97
2018-12-26T23:51:50.425Z,30.40
2018-12-26T23:54:30.837Z,31.00
2018-12-26T23:57:11.774Z,29.67
2018-12-26T23:59:52.471Z,35.73
